Startpagina
METAR-TAF:

METAR-TAF

Vliegvelden :

Luchthaven Larnaca

Larnaca, Cyprus

breedte: 34-53N, lengte: 033-38E, hoogte: 2 m

Actueel weer

Dit bericht is 40 minuten geleden gemaakt, om 18:00 UTC
Wind 3 kt uit het noordwesten, variërend tussen het westen en het noorden
Temperatuur 13°C
Vochtigheid 88%
Druk 1020 hPa
Zicht 10 km of meer
geen wolken onder 1500 m en geen cumulonimbus

METAR: LCLK 191800Z 31003KT 280V350 CAVOK 13/11 Q1020 NOSIG

Tijdstip: 20:40 (18:40 UTC)

Verwachting

Dit bericht is 1 uur en het 10 minuten geleden gemaakt, om 17:30 UTC
Verwachting geldig van 19 om 18 UTC tot 20 om 18 UTC
Wind 6 kt uit het noordwesten
Zicht 10 km of meer
Weinig wolken op 2500 ft
Wijzigt naar
van 20 om 08 UTC tot 20 om 12 UTC
Wind 12 kt uit het zuidzuidwesten
Wijzigt naar
van 20 om 15 UTC tot 20 om 18 UTC
Wind 6 kt uit het noordwesten

TAF: LCLK 191730Z 1918/2018 32006KT 9999 FEW025 BECMG 2008/2012 21012KT BECMG 2015/2018 32006KT

Waarnemingen en weersverwachtingen van meer dan 4000 vliegvelden (METAR en TAF).

De beschikbare stations zijn de gele en rode punten op de kaart.

Ga met uw muis naar het station om de naam te zien.

Klik dan om waarnemingen en weersverwachtingen te zien.

kaart wijzigen: klik op de groene knoppen met een zwart kruis om in te zoomen, op de groene knop met een streepje om uit te zoomen of op de groene pijlen voor aangrenzende kaarten.


METAR-TAF: